createdAt,value
2022-07-31T00:00:10.613Z,84.81
2022-07-31T00:00:19.753Z,84.92
2022-07-31T00:00:31.704Z,84.83
2022-07-31T00:00:39.742Z,84.99
2022-07-31T00:00:50.561Z,84.79
2022-07-31T00:00:59.785Z,84.87
2022-07-31T00:01:09.753Z,84.84
2022-07-31T00:01:19.763Z,84.87
2022-07-31T00:01:30.734Z,84.89
2022-07-31T00:01:41.688Z,84.92
2022-07-31T00:01:49.755Z,84.97
2022-07-31T00:01:59.752Z,84.81
2022-07-31T00:02:10.674Z,84.86
2022-07-31T00:02:19.737Z,84.97
2022-07-31T00:02:30.226Z,84.91
2022-07-31T00:02:39.736Z,84.98
2022-07-31T00:02:49.732Z,84.93
2022-07-31T00:02:59.812Z,84.94
2022-07-31T00:03:11.729Z,85.07
2022-07-31T00:03:20.079Z,85.24
2022-07-31T00:03:29.761Z,85.08
2022-07-31T00:03:39.820Z,85.15
2022-07-31T00:03:49.780Z,85.19
2022-07-31T00:04:01.705Z,85.19
2022-07-31T00:04:10.225Z,85.29
2022-07-31T00:04:19.733Z,85.13
2022-07-31T00:04:31.665Z,85.08
2022-07-31T00:04:41.693Z,85.24
2022-07-31T00:04:49.706Z,85.19
2022-07-31T00:04:59.752Z,85.01
2022-07-31T00:05:09.734Z,85.09
2022-07-31T00:05:19.856Z,85.18
2022-07-31T00:05:29.685Z,85.25
2022-07-31T00:05:41.513Z,85.23
2022-07-31T00:05:49.714Z,85.37
2022-07-31T00:05:59.725Z,85.13
2022-07-31T00:06:09.705Z,85.23
2022-07-31T00:06:19.714Z,85.25
2022-07-31T00:06:29.707Z,85.24
2022-07-31T00:06:39.715Z,85.23
2022-07-31T00:06:49.754Z,85.24
2022-07-31T00:07:01.943Z,85.25
2022-07-31T00:07:09.920Z,85.44
2022-07-31T00:07:19.886Z,85.15
2022-07-31T00:07:29.895Z,85.20
2022-07-31T00:07:41.855Z,85.19
2022-07-31T00:07:49.868Z,85.36
2022-07-31T00:07:59.887Z,85.16
2022-07-31T00:08:10.619Z,85.21
2022-07-31T00:08:19.894Z,85.34
2022-07-31T00:08:29.906Z,85.29
2022-07-31T00:08:41.845Z,85.33
2022-07-31T00:08:49.888Z,85.46
2022-07-31T00:08:59.928Z,85.22
2022-07-31T00:09:20.513Z,85.26
2022-07-31T00:09:48.950Z,85.97
2022-07-31T00:09:52.895Z,86.06
2022-07-31T00:09:53.971Z,85.64
2022-07-31T00:09:54.442Z,86.05
2022-07-31T00:10:01.465Z,85.99
2022-07-31T00:10:11.907Z,85.74
2022-07-31T00:10:23.407Z,85.65
2022-07-31T00:10:31.446Z,85.59
2022-07-31T00:10:41.497Z,85.43
2022-07-31T00:10:51.596Z,85.50
2022-07-31T00:11:03.398Z,85.53
2022-07-31T00:11:13.386Z,85.72
2022-07-31T00:11:21.507Z,85.68
2022-07-31T00:11:31.448Z,85.49
2022-07-31T00:11:41.457Z,85.58
2022-07-31T00:11:51.906Z,85.64
2022-07-31T00:12:01.426Z,85.70
2022-07-31T00:12:11.427Z,85.72
2022-07-31T00:12:21.443Z,85.73
2022-07-31T00:12:32.847Z,85.81
2022-07-31T00:12:43.378Z,85.87
2022-07-31T00:12:51.416Z,85.87
2022-07-31T00:13:01.496Z,85.72
2022-07-31T00:13:11.417Z,85.75
2022-07-31T00:13:56.435Z,86.22
2022-07-31T00:13:57.216Z,85.75
2022-07-31T00:13:58.133Z,86.46
2022-07-31T00:13:58.134Z,86.36
2022-07-31T00:14:02.099Z,86.56
2022-07-31T00:14:11.956Z,86.24
2022-07-31T00:14:22.007Z,86.11
2022-07-31T00:14:33.927Z,85.91
2022-07-31T00:14:42.812Z,86.05
2022-07-31T00:14:51.957Z,85.95
2022-07-31T00:15:01.967Z,85.85
2022-07-31T00:15:11.958Z,85.91
2022-07-31T00:15:21.958Z,85.88
2022-07-31T00:15:33.928Z,85.86
2022-07-31T00:15:43.388Z,85.99
2022-07-31T00:15:51.947Z,85.92
2022-07-31T00:16:03.899Z,85.76
2022-07-31T00:16:13.398Z,85.92
2022-07-31T00:16:23.889Z,85.87
2022-07-31T00:16:33.965Z,85.94
2022-07-31T00:16:41.951Z,85.88
2022-07-31T00:16:53.908Z,85.65
2022-07-31T00:17:03.181Z,85.91
2022-07-31T00:17:11.965Z,85.86
2022-07-31T00:17:23.927Z,85.75
2022-07-31T00:17:31.947Z,85.96
2022-07-31T00:17:43.902Z,85.82
2022-07-31T00:17:51.929Z,86.00
2022-07-31T00:18:03.919Z,85.84
2022-07-31T00:18:11.935Z,86.03
2022-07-31T00:18:23.909Z,85.82
2022-07-31T00:18:31.925Z,85.98
2022-07-31T00:18:41.958Z,85.82
2022-07-31T00:18:53.879Z,85.86
2022-07-31T00:19:03.900Z,85.97
2022-07-31T00:19:11.926Z,85.96
2022-07-31T00:19:21.935Z,85.77
2022-07-31T00:19:33.896Z,85.87
2022-07-31T00:19:41.946Z,86.06
2022-07-31T00:19:51.987Z,85.87
2022-07-31T00:20:01.902Z,85.82
2022-07-31T00:20:12.020Z,85.89
2022-07-31T00:20:23.886Z,85.93
2022-07-31T00:20:32.266Z,86.08
2022-07-31T00:20:41.900Z,85.89
2022-07-31T00:20:51.965Z,85.91
2022-07-31T00:21:02.270Z,85.92
2022-07-31T00:21:13.849Z,85.92
2022-07-31T00:21:22.380Z,86.01
2022-07-31T00:21:31.888Z,85.85
2022-07-31T00:21:42.917Z,85.83
2022-07-31T00:21:51.920Z,85.97
2022-07-31T00:22:02.320Z,85.86
2022-07-31T00:22:11.910Z,85.86
2022-07-31T00:22:21.942Z,85.84
2022-07-31T00:22:33.862Z,85.93
2022-07-31T00:22:42.362Z,86.03
2022-07-31T00:22:51.949Z,85.89
2022-07-31T00:23:02.430Z,85.90
2022-07-31T00:23:11.890Z,85.93
2022-07-31T00:23:22.029Z,86.31
2022-07-31T00:23:31.943Z,86.14
2022-07-31T00:23:42.481Z,86.02
2022-07-31T00:23:52.528Z,86.03
2022-07-31T00:24:01.894Z,85.97
2022-07-31T00:24:11.900Z,85.95
2022-07-31T00:24:22.097Z,85.94
2022-07-31T00:24:31.923Z,85.96
2022-07-31T00:24:41.888Z,85.93
2022-07-31T00:24:52.510Z,85.93
2022-07-31T00:25:02.559Z,85.92
2022-07-31T00:25:13.832Z,85.91
2022-07-31T00:25:21.880Z,85.96
2022-07-31T00:25:33.350Z,85.83
2022-07-31T00:25:43.819Z,85.94
2022-07-31T00:25:52.534Z,85.93
2022-07-31T00:26:01.861Z,85.86
2022-07-31T00:26:13.889Z,85.82
2022-07-31T00:26:22.569Z,86.00
2022-07-31T00:26:31.849Z,85.86
2022-07-31T00:26:41.899Z,85.86
2022-07-31T00:26:52.859Z,85.80
2022-07-31T00:27:02.192Z,85.93
2022-07-31T00:27:11.911Z,85.88
2022-07-31T00:27:21.924Z,85.77
2022-07-31T00:27:31.953Z,85.82
2022-07-31T00:27:41.951Z,85.84
2022-07-31T00:27:51.931Z,85.92
2022-07-31T00:28:01.864Z,85.90
2022-07-31T00:28:13.831Z,85.94
2022-07-31T00:28:21.852Z,86.13
2022-07-31T00:28:31.971Z,85.91
2022-07-31T00:28:41.842Z,85.98
2022-07-31T00:28:53.822Z,86.03
2022-07-31T00:29:01.882Z,86.16
2022-07-31T00:29:11.869Z,86.01
2022-07-31T00:29:21.861Z,86.40
2022-07-31T00:29:31.912Z,86.19
2022-07-31T00:29:41.861Z,86.11
2022-07-31T00:29:51.867Z,86.08
2022-07-31T00:30:01.872Z,85.99
2022-07-31T00:30:13.812Z,86.05
2022-07-31T00:30:23.284Z,86.12
2022-07-31T00:30:31.831Z,86.04
2022-07-31T00:30:41.847Z,85.95
2022-07-31T00:30:51.873Z,86.01
2022-07-31T00:31:01.833Z,86.06
2022-07-31T00:31:11.851Z,86.07
2022-07-31T00:31:22.160Z,86.03
2022-07-31T00:31:31.880Z,86.13
2022-07-31T00:31:44.260Z,86.39
2022-07-31T00:31:53.923Z,86.53
2022-07-31T00:32:03.949Z,86.26
2022-07-31T00:32:12.593Z,86.19
2022-07-31T00:32:21.962Z,86.10
2022-07-31T00:32:33.959Z,86.11
2022-07-31T00:32:43.415Z,86.28
2022-07-31T00:32:53.906Z,86.25
2022-07-31T00:33:03.926Z,86.29
2022-07-31T00:33:11.984Z,86.30
2022-07-31T00:33:21.962Z,86.08
2022-07-31T00:33:31.943Z,86.22
2022-07-31T00:33:41.967Z,86.24
2022-07-31T00:33:51.983Z,86.29
2022-07-31T00:34:02.001Z,86.29
2022-07-31T00:34:11.963Z,86.28
2022-07-31T00:34:21.964Z,86.33
2022-07-31T00:34:33.927Z,86.38
2022-07-31T00:34:43.896Z,86.46
2022-07-31T00:34:53.924Z,86.42
2022-07-31T00:35:01.933Z,86.46
2022-07-31T00:35:13.913Z,86.30
2022-07-31T00:35:21.934Z,86.44
2022-07-31T00:35:33.920Z,86.28
2022-07-31T00:35:43.400Z,86.46
2022-07-31T00:35:53.994Z,86.41
2022-07-31T00:36:01.948Z,86.42
2022-07-31T00:36:11.943Z,86.27
2022-07-31T00:36:21.946Z,86.31
2022-07-31T00:36:33.422Z,86.71
2022-07-31T00:36:41.923Z,86.62
2022-07-31T00:36:52.136Z,86.45
2022-07-31T00:37:02.235Z,86.41
2022-07-31T00:37:13.451Z,86.46
2022-07-31T00:37:21.921Z,86.51
2022-07-31T00:37:32.923Z,86.35
2022-07-31T00:37:41.973Z,86.47
2022-07-31T00:37:54.811Z,86.38
2022-07-31T00:38:26.157Z,86.72
2022-07-31T00:38:26.781Z,86.97
2022-07-31T00:38:28.333Z,86.90
2022-07-31T00:38:34.394Z,86.98
2022-07-31T00:38:42.605Z,86.76
2022-07-31T00:38:52.655Z,86.48
2022-07-31T00:39:02.585Z,86.47
2022-07-31T00:39:14.532Z,86.35
2022-07-31T00:39:22.544Z,86.49
2022-07-31T00:39:34.506Z,86.28
2022-07-31T00:39:42.685Z,86.43
2022-07-31T00:39:54.494Z,86.26
2022-07-31T00:40:04.515Z,86.43
2022-07-31T00:40:12.615Z,86.42
2022-07-31T00:40:22.725Z,86.28
2022-07-31T00:40:33.781Z,86.31
2022-07-31T00:40:44.485Z,86.36
2022-07-31T00:40:52.544Z,86.40
2022-07-31T00:41:02.555Z,86.13
2022-07-31T00:41:14.515Z,86.25
2022-07-31T00:41:23.994Z,86.34
2022-07-31T00:41:34.495Z,86.23
2022-07-31T00:41:44.495Z,86.31
2022-07-31T00:41:52.719Z,86.27
2022-07-31T00:42:03.504Z,86.18
2022-07-31T00:42:12.539Z,86.29
2022-07-31T00:42:22.840Z,86.25
2022-07-31T00:42:34.486Z,86.27
2022-07-31T00:42:42.542Z,86.46
2022-07-31T00:42:52.545Z,86.25
2022-07-31T00:43:04.517Z,86.31
2022-07-31T00:43:13.876Z,86.49
2022-07-31T00:43:23.375Z,86.38
2022-07-31T00:43:34.485Z,86.71
2022-07-31T00:43:43.042Z,86.63
2022-07-31T00:43:52.535Z,86.39
2022-07-31T00:44:02.781Z,86.34
2022-07-31T00:44:12.686Z,86.49
2022-07-31T00:44:22.535Z,86.37
2022-07-31T00:44:34.479Z,86.39
2022-07-31T00:44:43.204Z,86.80
2022-07-31T00:44:53.476Z,86.88
2022-07-31T00:45:03.203Z,86.70
2022-07-31T00:45:13.993Z,86.66
2022-07-31T00:45:29.177Z,86.46
2022-07-31T00:45:34.385Z,86.77
2022-07-31T00:45:43.546Z,86.92
2022-07-31T00:45:58.974Z,86.70
2022-07-31T00:46:04.407Z,86.88
2022-07-31T00:46:14.257Z,86.68
2022-07-31T00:46:23.586Z,86.56
2022-07-31T00:46:35.395Z,86.44
2022-07-31T00:46:44.832Z,86.87
2022-07-31T00:46:56.787Z,86.69
2022-07-31T00:47:07.005Z,86.67
2022-07-31T00:47:14.909Z,86.58
2022-07-31T00:47:25.844Z,86.45
2022-07-31T00:47:36.875Z,86.50
2022-07-31T00:47:44.906Z,86.76
2022-07-31T00:47:56.900Z,86.61
2022-07-31T00:48:06.884Z,86.65
2022-07-31T00:48:14.918Z,86.51
2022-07-31T00:48:27.649Z,86.35
2022-07-31T00:48:34.907Z,86.68
2022-07-31T00:48:45.350Z,86.68
2022-07-31T00:48:56.871Z,86.51
2022-07-31T00:49:06.875Z,86.53
2022-07-31T00:49:15.027Z,86.57
2022-07-31T00:49:25.059Z,86.47
2022-07-31T00:49:37.462Z,86.52
2022-07-31T00:49:45.421Z,86.85
2022-07-31T00:49:54.887Z,86.72
2022-07-31T00:50:04.916Z,86.61
2022-07-31T00:50:16.856Z,86.56
2022-07-31T00:50:24.878Z,86.66
2022-07-31T00:50:34.939Z,86.51
2022-07-31T00:50:45.748Z,86.53
2022-07-31T00:50:56.867Z,86.55
2022-07-31T00:51:05.955Z,86.52
2022-07-31T00:51:14.889Z,86.39
2022-07-31T00:51:25.198Z,86.35
2022-07-31T00:51:34.930Z,86.37
2022-07-31T00:51:44.919Z,86.36
2022-07-31T00:51:54.878Z,86.38
2022-07-31T00:52:05.876Z,86.41
2022-07-31T00:52:14.937Z,86.45
2022-07-31T00:52:24.892Z,86.43
2022-07-31T00:52:36.859Z,86.38
2022-07-31T00:52:45.327Z,86.56
2022-07-31T00:52:54.902Z,86.39
2022-07-31T00:53:06.844Z,86.32
2022-07-31T00:53:16.839Z,86.50
2022-07-31T00:53:26.821Z,86.44
2022-07-31T00:53:36.830Z,86.41
2022-07-31T00:53:46.315Z,86.37
2022-07-31T00:53:54.879Z,86.31
2022-07-31T00:54:04.880Z,86.27
2022-07-31T00:54:22.929Z,86.39
2022-07-31T00:54:27.451Z,86.91
2022-07-31T00:54:38.378Z,86.62
2022-07-31T00:54:48.371Z,86.60
2022-07-31T00:54:56.910Z,86.51
2022-07-31T00:55:06.429Z,86.43
2022-07-31T00:55:18.399Z,86.43
2022-07-31T00:55:26.419Z,86.59
2022-07-31T00:55:51.298Z,86.42
2022-07-31T00:55:51.698Z,86.82
2022-07-31T00:55:56.429Z,87.02
2022-07-31T00:56:06.960Z,86.75
2022-07-31T00:56:16.415Z,86.67
2022-07-31T00:56:27.021Z,86.52
2022-07-31T00:56:37.070Z,86.59
2022-07-31T00:56:46.607Z,86.56
2022-07-31T00:56:56.940Z,86.53
2022-07-31T00:57:07.518Z,86.54
2022-07-31T00:57:17.001Z,86.58
2022-07-31T00:57:27.029Z,86.48
2022-07-31T00:57:37.104Z,86.54
2022-07-31T00:57:47.110Z,86.55
2022-07-31T00:57:56.585Z,86.52
2022-07-31T00:58:07.241Z,86.54
2022-07-31T00:58:17.110Z,86.59
2022-07-31T00:58:27.149Z,86.51
2022-07-31T00:58:36.509Z,86.50
2022-07-31T00:58:48.360Z,86.48
2022-07-31T00:58:57.150Z,86.59
2022-07-31T00:59:07.244Z,86.48
2022-07-31T00:59:16.428Z,86.54
2022-07-31T00:59:26.380Z,86.89
2022-07-31T00:59:37.180Z,86.71
2022-07-31T00:59:47.220Z,86.71
2022-07-31T00:59:57.165Z,86.67
2022-07-31T01:00:07.219Z,86.70
2022-07-31T01:00:17.229Z,86.71
2022-07-31T01:00:27.262Z,86.64
2022-07-31T01:00:37.196Z,86.72
2022-07-31T01:00:47.320Z,86.73
2022-07-31T01:00:56.444Z,86.66
2022-07-31T01:01:06.473Z,86.63
2022-07-31T01:01:16.451Z,86.63
2022-07-31T01:01:27.034Z,86.64
2022-07-31T01:01:36.778Z,86.72
2022-07-31T01:01:47.138Z,86.66
2022-07-31T01:01:56.361Z,86.68
2022-07-31T01:02:06.701Z,86.68
2022-07-31T01:02:18.339Z,86.70
2022-07-31T01:02:26.373Z,86.84
2022-07-31T01:02:36.698Z,86.67
2022-07-31T01:02:47.041Z,86.73
2022-07-31T01:02:56.394Z,86.77
2022-07-31T01:03:06.382Z,86.77
2022-07-31T01:03:16.362Z,86.77
2022-07-31T01:03:26.622Z,86.78
2022-07-31T01:03:38.313Z,86.83
2022-07-31T01:03:46.431Z,86.86
2022-07-31T01:03:57.305Z,86.68
2022-07-31T01:04:06.371Z,86.78
2022-07-31T01:04:18.321Z,86.82
2022-07-31T01:04:26.702Z,86.83
2022-07-31T01:04:41.510Z,86.77
2022-07-31T01:04:47.271Z,87.10
2022-07-31T01:04:57.393Z,86.96
2022-07-31T01:05:07.433Z,86.89
2022-07-31T01:05:17.264Z,86.84
2022-07-31T01:05:26.862Z,86.82
2022-07-31T01:05:36.533Z,86.78
2022-07-31T01:05:46.552Z,86.79
2022-07-31T01:05:57.502Z,86.79
2022-07-31T01:06:08.472Z,86.78
2022-07-31T01:06:17.990Z,86.84
2022-07-31T01:06:26.535Z,86.69
2022-07-31T01:06:39.696Z,86.61
2022-07-31T01:06:46.590Z,86.95
2022-07-31T01:06:57.503Z,86.84
2022-07-31T01:07:07.644Z,86.77
2022-07-31T01:07:16.538Z,86.73
2022-07-31T01:07:27.514Z,86.67
2022-07-31T01:07:36.514Z,86.73
2022-07-31T01:07:48.468Z,86.62
2022-07-31T01:07:57.982Z,86.76
2022-07-31T01:08:06.511Z,86.66
2022-07-31T01:08:16.556Z,86.56
2022-07-31T01:08:26.542Z,86.60
2022-07-31T01:08:36.636Z,86.62
2022-07-31T01:08:48.464Z,86.61
2022-07-31T01:08:58.465Z,86.77
2022-07-31T01:09:06.940Z,86.68
2022-07-31T01:09:16.563Z,86.59
2022-07-31T01:09:26.583Z,86.57
2022-07-31T01:09:38.453Z,86.61
2022-07-31T01:09:48.464Z,86.75
2022-07-31T01:09:58.463Z,86.69
2022-07-31T01:10:08.453Z,86.66
2022-07-31T01:10:18.476Z,86.61
2022-07-31T01:10:26.714Z,86.58
2022-07-31T01:10:36.504Z,86.51
2022-07-31T01:10:46.566Z,86.57
2022-07-31T01:10:56.501Z,86.57
2022-07-31T01:11:06.503Z,86.58
2022-07-31T01:11:18.475Z,86.57
2022-07-31T01:11:26.506Z,86.70
2022-07-31T01:11:38.458Z,86.52
2022-07-31T01:11:47.066Z,86.73
2022-07-31T01:11:58.456Z,86.57
2022-07-31T01:12:06.488Z,86.71
2022-07-31T01:12:17.268Z,86.54
2022-07-31T01:12:28.534Z,86.64
2022-07-31T01:12:36.489Z,86.73
2022-07-31T01:12:49.764Z,86.52
2022-07-31T01:12:57.836Z,86.90
2022-07-31T01:13:06.501Z,86.81
2022-07-31T01:13:17.427Z,86.68
2022-07-31T01:13:28.457Z,86.71
2022-07-31T01:13:36.499Z,86.77
2022-07-31T01:13:47.377Z,86.54
2022-07-31T01:13:58.448Z,86.69
2022-07-31T01:14:06.485Z,86.69
2022-07-31T01:14:17.335Z,86.55
2022-07-31T01:14:28.470Z,86.65
2022-07-31T01:14:36.488Z,86.66
2022-07-31T01:14:47.290Z,86.48
2022-07-31T01:14:56.487Z,86.59
2022-07-31T01:15:06.479Z,86.54
2022-07-31T01:15:16.489Z,86.56
2022-07-31T01:15:26.957Z,86.52
2022-07-31T01:15:36.468Z,86.56
2022-07-31T01:15:47.448Z,86.50
2022-07-31T01:15:57.006Z,86.76
2022-07-31T01:16:08.426Z,86.75
2022-07-31T01:16:16.458Z,86.75
2022-07-31T01:16:26.478Z,86.56
2022-07-31T01:16:36.497Z,86.60
2022-07-31T01:16:46.468Z,86.60
2022-07-31T01:16:58.408Z,86.54
2022-07-31T01:17:08.409Z,86.57
2022-07-31T01:17:17.047Z,86.49
2022-07-31T01:17:28.429Z,86.35
2022-07-31T01:17:36.438Z,86.47
2022-07-31T01:17:46.460Z,86.30
2022-07-31T01:17:56.478Z,86.38
2022-07-31T01:18:08.460Z,86.36
2022-07-31T01:18:16.698Z,86.60
2022-07-31T01:18:28.425Z,86.42
2022-07-31T01:18:38.421Z,86.43
2022-07-31T01:18:47.431Z,86.31
2022-07-31T01:18:56.812Z,86.23
2022-07-31T01:19:08.532Z,86.13
2022-07-31T01:19:16.560Z,86.27
2022-07-31T01:19:38.573Z,86.58
2022-07-31T01:19:42.016Z,86.07
2022-07-31T01:19:47.581Z,86.76
2022-07-31T01:19:58.115Z,86.48
2022-07-31T01:20:09.817Z,86.39
2022-07-31T01:20:17.769Z,86.40
2022-07-31T01:20:27.532Z,86.26
2022-07-31T01:20:38.171Z,86.27
2022-07-31T01:20:47.882Z,86.33
2022-07-31T01:20:59.528Z,86.32
2022-07-31T01:21:07.860Z,86.45
2022-07-31T01:21:18.210Z,86.32
2022-07-31T01:21:29.470Z,86.40
2022-07-31T01:21:37.530Z,86.48
2022-07-31T01:21:48.491Z,86.35
2022-07-31T01:21:57.540Z,86.46
2022-07-31T01:22:32.999Z,86.79
2022-07-31T01:22:33.931Z,86.91
2022-07-31T01:22:34.261Z,86.28
2022-07-31T01:22:40.324Z,86.98
2022-07-31T01:22:50.250Z,86.69
2022-07-31T01:22:59.698Z,86.56
2022-07-31T01:23:10.321Z,86.50
2022-07-31T01:23:20.259Z,86.59
2022-07-31T01:23:29.719Z,86.66
2022-07-31T01:23:41.648Z,86.68
2022-07-31T01:23:55.018Z,87.22
2022-07-31T01:24:03.191Z,87.30
2022-07-31T01:24:11.231Z,87.04
2022-07-31T01:24:23.190Z,86.77
2022-07-31T01:24:31.250Z,86.83
2022-07-31T01:24:41.237Z,86.63
2022-07-31T01:24:53.181Z,86.62
2022-07-31T01:25:03.180Z,86.75
2022-07-31T01:25:13.205Z,86.80
2022-07-31T01:25:23.163Z,86.87
2022-07-31T01:25:33.190Z,86.67
2022-07-31T01:25:41.250Z,86.59
2022-07-31T01:25:53.189Z,86.48
2022-07-31T01:26:03.173Z,86.60
2022-07-31T01:26:13.181Z,86.60
2022-07-31T01:26:21.239Z,86.73
2022-07-31T01:26:33.193Z,86.89
2022-07-31T01:26:43.169Z,86.73
2022-07-31T01:26:53.162Z,86.62
2022-07-31T01:27:03.405Z,86.52
2022-07-31T01:27:11.301Z,86.50
2022-07-31T01:27:21.313Z,86.27
2022-07-31T01:27:33.265Z,86.32
2022-07-31T01:27:49.599Z,86.83
2022-07-31T01:27:53.171Z,86.92
2022-07-31T01:28:03.141Z,86.58
2022-07-31T01:28:15.089Z,86.42
2022-07-31T01:28:25.053Z,86.49
2022-07-31T01:28:34.562Z,86.37
2022-07-31T01:28:43.110Z,86.30
2022-07-31T01:28:53.161Z,86.16
2022-07-31T01:29:05.053Z,86.21
2022-07-31T01:29:14.557Z,86.25
2022-07-31T01:29:25.067Z,86.21
2022-07-31T01:29:35.060Z,86.23
2022-07-31T01:29:45.058Z,86.17
2022-07-31T01:29:55.097Z,86.13
2022-07-31T01:30:03.220Z,86.12
2022-07-31T01:30:13.113Z,86.03
2022-07-31T01:30:24.799Z,86.03
2022-07-31T01:30:35.058Z,86.39
2022-07-31T01:30:44.044Z,86.33
2022-07-31T01:31:10.744Z,86.15
2022-07-31T01:31:25.664Z,86.45
2022-07-31T01:31:27.150Z,86.77
2022-07-31T01:31:28.602Z,86.62
2022-07-31T01:31:34.541Z,86.82
2022-07-31T01:31:43.754Z,86.59
2022-07-31T01:31:53.093Z,86.41
2022-07-31T01:32:04.535Z,86.30
2022-07-31T01:32:13.103Z,86.45
2022-07-31T01:32:27.520Z,86.35
2022-07-31T01:32:33.743Z,86.75
2022-07-31T01:32:43.764Z,86.59
2022-07-31T01:32:55.052Z,86.52
2022-07-31T01:33:03.734Z,86.51
2022-07-31T01:33:13.764Z,86.42
2022-07-31T01:33:23.803Z,86.41
2022-07-31T01:33:33.095Z,86.43
2022-07-31T01:33:43.764Z,86.43
2022-07-31T01:33:55.073Z,86.51
2022-07-31T01:34:03.968Z,86.53
2022-07-31T01:34:13.157Z,86.40
2022-07-31T01:34:23.811Z,86.39
2022-07-31T01:34:33.846Z,86.38
2022-07-31T01:34:45.026Z,86.43
2022-07-31T01:34:53.094Z,86.48
2022-07-31T01:35:03.131Z,86.28
2022-07-31T01:35:13.475Z,86.33
2022-07-31T01:35:24.994Z,86.31
2022-07-31T01:35:33.862Z,86.39
2022-07-31T01:35:43.686Z,86.24
2022-07-31T01:35:53.075Z,86.24
2022-07-31T01:36:05.045Z,86.20
2022-07-31T01:36:15.005Z,86.35
2022-07-31T01:36:23.054Z,86.28
2022-07-31T01:36:33.054Z,86.04
2022-07-31T01:36:45.007Z,86.10
2022-07-31T01:36:53.055Z,86.21
2022-07-31T01:37:03.412Z,86.04
2022-07-31T01:37:15.007Z,86.10
2022-07-31T01:37:24.515Z,86.19
2022-07-31T01:37:34.984Z,86.17
2022-07-31T01:37:44.002Z,86.22
2022-07-31T01:37:53.082Z,86.22
2022-07-31T01:38:03.051Z,86.19
2022-07-31T01:38:13.054Z,86.29
2022-07-31T01:38:23.046Z,86.30
2022-07-31T01:38:34.990Z,86.29
2022-07-31T01:38:45.812Z,86.35
2022-07-31T01:38:55.023Z,86.52
2022-07-31T01:39:04.489Z,86.52
2022-07-31T01:39:14.996Z,86.36
2022-07-31T01:39:23.127Z,86.33
2022-07-31T01:39:34.047Z,86.21
2022-07-31T01:39:43.035Z,86.29
2022-07-31T01:39:53.045Z,86.19
2022-07-31T01:40:03.205Z,86.26
2022-07-31T01:40:13.018Z,86.26
2022-07-31T01:40:23.134Z,86.21
2022-07-31T01:40:33.166Z,86.22
2022-07-31T01:40:43.007Z,86.21
2022-07-31T01:40:53.022Z,86.21
2022-07-31T01:41:03.183Z,86.20
2022-07-31T01:41:14.969Z,86.23
2022-07-31T01:41:23.015Z,86.38
2022-07-31T01:41:33.174Z,86.31
2022-07-31T01:41:43.025Z,86.47
2022-07-31T01:41:53.010Z,86.59
2022-07-31T01:42:03.453Z,86.62
2022-07-31T01:42:13.016Z,86.74
2022-07-31T01:42:23.016Z,86.65
2022-07-31T01:42:33.188Z,86.59
2022-07-31T01:42:43.014Z,86.53
2022-07-31T01:42:53.048Z,86.49
2022-07-31T01:43:03.027Z,86.46
2022-07-31T01:43:13.036Z,86.47
2022-07-31T01:43:23.037Z,86.51
2022-07-31T01:43:34.954Z,86.48
2022-07-31T01:43:44.998Z,86.54
2022-07-31T01:43:54.948Z,86.47
2022-07-31T01:44:04.950Z,86.44
2022-07-31T01:44:14.605Z,86.43
2022-07-31T01:44:24.958Z,86.45
2022-07-31T01:44:33.005Z,86.43
2022-07-31T01:44:44.961Z,86.34
2022-07-31T01:44:54.975Z,86.54
2022-07-31T01:45:03.017Z,86.47
2022-07-31T01:45:12.996Z,86.30
2022-07-31T01:45:24.043Z,86.31
2022-07-31T01:45:34.448Z,86.45
2022-07-31T01:45:42.990Z,86.42
2022-07-31T01:45:52.998Z,86.31
2022-07-31T01:46:02.997Z,86.37
2022-07-31T01:46:13.757Z,86.40
2022-07-31T01:46:24.940Z,86.42
2022-07-31T01:46:37.482Z,86.45
2022-07-31T01:46:43.038Z,86.65
2022-07-31T01:46:53.947Z,86.44
2022-07-31T01:47:05.382Z,86.38
2022-07-31T01:47:15.199Z,86.46
2022-07-31T01:47:23.256Z,86.41
2022-07-31T01:47:35.229Z,86.32
2022-07-31T01:47:43.247Z,86.46
2022-07-31T01:47:53.257Z,86.28
2022-07-31T01:48:03.328Z,86.27
2022-07-31T01:48:15.172Z,86.24
2022-07-31T01:48:23.219Z,86.31
2022-07-31T01:48:33.246Z,86.10
2022-07-31T01:48:43.230Z,86.13
2022-07-31T01:48:54.027Z,86.13
2022-07-31T01:49:03.259Z,86.22
2022-07-31T01:49:13.357Z,86.13
2022-07-31T01:49:23.327Z,86.17
2022-07-31T01:49:35.284Z,86.13
2022-07-31T01:49:45.170Z,86.23
2022-07-31T01:49:55.180Z,86.16
2022-07-31T01:50:03.209Z,86.13
2022-07-31T01:50:41.831Z,85.96
2022-07-31T01:50:43.181Z,86.61
2022-07-31T01:50:43.660Z,86.39
2022-07-31T01:50:44.391Z,86.60
2022-07-31T01:50:53.721Z,86.30
2022-07-31T01:51:04.677Z,86.12
2022-07-31T01:51:13.698Z,86.12
2022-07-31T01:51:23.700Z,86.00
2022-07-31T01:51:34.679Z,85.99
2022-07-31T01:51:45.659Z,86.06
2022-07-31T01:51:54.954Z,86.07
2022-07-31T01:52:04.754Z,86.31
2022-07-31T01:52:16.020Z,86.15
2022-07-31T01:52:24.069Z,86.10
2022-07-31T01:52:34.976Z,85.91
2022-07-31T01:52:44.090Z,86.00
2022-07-31T01:52:54.123Z,85.89
2022-07-31T01:53:06.077Z,85.92
2022-07-31T01:53:14.870Z,86.00
2022-07-31T01:53:26.042Z,85.86
2022-07-31T01:53:36.029Z,85.96
2022-07-31T01:53:46.020Z,85.85
2022-07-31T01:53:56.012Z,85.79
2022-07-31T01:54:05.550Z,85.81
2022-07-31T01:54:16.019Z,85.78
2022-07-31T01:54:24.070Z,85.78
2022-07-31T01:54:36.041Z,85.62
2022-07-31T01:54:44.980Z,85.81
2022-07-31T01:54:54.083Z,85.79
2022-07-31T01:55:06.010Z,85.72
2022-07-31T01:55:14.050Z,85.89
2022-07-31T01:55:24.578Z,85.80
2022-07-31T01:55:56.421Z,85.85
2022-07-31T01:56:01.791Z,86.30
2022-07-31T01:56:03.832Z,86.57
2022-07-31T01:56:05.669Z,86.77
2022-07-31T01:56:17.591Z,86.44
2022-07-31T01:56:27.578Z,86.36
2022-07-31T01:56:37.550Z,86.22
2022-07-31T01:56:45.627Z,86.17
2022-07-31T01:56:55.621Z,85.95
2022-07-31T01:57:05.661Z,86.01
2022-07-31T01:57:18.543Z,86.02
2022-07-31T01:57:25.812Z,86.30
2022-07-31T01:57:37.561Z,86.26
2022-07-31T01:57:47.582Z,86.26
2022-07-31T01:57:57.571Z,86.24
2022-07-31T01:58:05.610Z,86.23
2022-07-31T01:58:15.614Z,86.00
2022-07-31T01:58:25.631Z,86.02
2022-07-31T01:58:36.645Z,86.11
2022-07-31T01:58:45.894Z,86.21
2022-07-31T01:58:57.553Z,86.13
2022-07-31T01:59:20.509Z,86.56
2022-07-31T01:59:20.596Z,86.17
2022-07-31T01:59:28.654Z,86.66
2022-07-31T01:59:37.530Z,86.78
2022-07-31T01:59:47.552Z,86.82
2022-07-31T01:59:57.981Z,86.49
2022-07-31T02:00:33.472Z,86.67
2022-07-31T02:00:33.929Z,86.44
2022-07-31T02:00:34.137Z,86.53
2022-07-31T02:00:40.087Z,86.87
2022-07-31T02:00:51.120Z,86.53
2022-07-31T02:00:59.623Z,86.42
2022-07-31T02:01:11.526Z,86.29
2022-07-31T02:01:26.686Z,86.46
2022-07-31T02:01:30.638Z,86.84
2022-07-31T02:01:41.526Z,86.63
2022-07-31T02:01:50.783Z,86.48
2022-07-31T02:02:02.828Z,86.42
2022-07-31T02:02:12.591Z,86.46
2022-07-31T02:02:20.953Z,86.39
2022-07-31T02:02:30.802Z,86.21
2022-07-31T02:02:42.233Z,86.27
2022-07-31T02:02:54.480Z,86.44
2022-07-31T02:03:09.393Z,86.56
2022-07-31T02:03:12.605Z,86.85
2022-07-31T02:03:44.245Z,86.81
2022-07-31T02:03:44.467Z,86.62
2022-07-31T02:03:45.460Z,86.86
2022-07-31T02:03:56.307Z,86.65
2022-07-31T02:04:06.094Z,86.51
2022-07-31T02:04:15.606Z,86.72
2022-07-31T02:04:27.054Z,86.56
2022-07-31T02:04:37.039Z,86.53
2022-07-31T02:04:46.543Z,86.45
2022-07-31T02:04:55.178Z,86.35
2022-07-31T02:05:07.081Z,86.23
2022-07-31T02:05:16.525Z,86.40
2022-07-31T02:05:27.013Z,86.31
2022-07-31T02:05:35.088Z,86.30
2022-07-31T02:05:47.033Z,86.14
2022-07-31T02:05:57.055Z,86.27
2022-07-31T02:06:05.942Z,86.21
2022-07-31T02:06:17.047Z,86.08
2022-07-31T02:06:25.115Z,86.25
2022-07-31T02:06:37.053Z,86.22
2022-07-31T02:06:47.018Z,86.44
2022-07-31T02:06:56.543Z,86.43
2022-07-31T02:07:07.004Z,86.32
2022-07-31T02:07:15.079Z,86.36
2022-07-31T02:07:27.003Z,86.17
2022-07-31T02:07:35.084Z,86.32
2022-07-31T02:07:47.013Z,86.16
2022-07-31T02:07:57.023Z,86.33
2022-07-31T02:08:06.993Z,86.24
2022-07-31T02:08:15.066Z,86.18
2022-07-31T02:08:25.986Z,86.03
2022-07-31T02:08:35.078Z,86.10
2022-07-31T02:08:45.103Z,85.98
2022-07-31T02:08:57.036Z,85.97
2022-07-31T02:09:05.041Z,86.06
2022-07-31T02:09:15.066Z,85.84